Skip Navigation LinksHome page > Weather > Current weather Skip Navigation Links

Current Weather

Indira Gandhi Intl Apt, New Delhi, India

For information only: do not use for flight planning or navigation.
Latest weather
Observation time Saturday, July 20, 2019 9:00 PM IST
Local time Saturday, July 20, 2019 9:41 PM IST
Flight conditions Instrument Meteorological Conditions
Winds
Wind direction East-Northeast (60°)
Wind speed 5 mph
Visibility 1.9 mi.
Present weather mist
Sky condition
Ceiling 10,000 ft. broken clouds
Cloud layer scattered clouds 3,000 ft.
Cloud layer broken clouds 10,000 ft.
Temperature 82°F
Dewpoint 79°F
Altimeter 29.62 in.Hg
Derived measurements
Relative humidity 89%
Heat index 92°F
Density altitude 3054 ft.
Remarks
No significant changes expected in the next two hours.
METAR VIDP 201530Z 06004KT 3000 BR SCT030 BKN100 28/26 Q1003 NOSIG

Settings

Location code

InnerDrive.Weather 4.0.6770.0 Release CLR 4.0.30319.42000
Copyright ©2018 Inner Drive Technology. All rights reserved. Portions Copyright ©1986-2018 David Braverman.

Find weather

Site navigation


Skip Navigation Links

Place info

Page info

PayPal - The safer, easier way to pay online!

Return home.

Copyright ©2019 Inner Drive Technology. Purveyors of fine, hand-crafted computer software. Page printed 2019-07-20T16:11:01 UTC.